createdAt,value
2017-08-30T00:01:23.206Z,6.47
2017-08-30T00:03:50.794Z,6.87
2017-08-30T00:06:18.468Z,7.50
2017-08-30T00:08:46.866Z,6.43
2017-08-30T00:11:14.484Z,6.87
2017-08-30T00:13:42.938Z,6.33
2017-08-30T00:16:10.563Z,6.73
2017-08-30T00:18:38.218Z,6.07
2017-08-30T00:21:05.817Z,7.00
2017-08-30T00:23:33.443Z,6.40
2017-08-30T00:26:13.698Z,6.73
2017-08-30T00:28:41.289Z,6.63
2017-08-30T00:31:08.922Z,6.67
2017-08-30T00:33:37.298Z,7.10
2017-08-30T00:36:05.654Z,6.67
2017-08-30T00:38:33.957Z,7.17
2017-08-30T00:41:01.546Z,6.40
2017-08-30T00:43:30.002Z,6.80
2017-08-30T00:45:58.411Z,7.57
2017-08-30T00:48:26.046Z,6.77
2017-08-30T00:50:54.466Z,6.60
2017-08-30T00:53:22.071Z,7.23
2017-08-30T00:55:50.671Z,6.67
2017-08-30T00:58:18.381Z,6.80
2017-08-30T01:00:46.728Z,6.47
2017-08-30T01:03:14.381Z,6.73
2017-08-30T01:05:42.763Z,5.97
2017-08-30T01:08:10.351Z,6.30
2017-08-30T01:10:37.983Z,6.53
2017-08-30T01:13:06.378Z,6.97
2017-08-30T01:15:34.015Z,7.80
2017-08-30T01:18:01.607Z,6.97
2017-08-30T01:20:29.208Z,7.07
2017-08-30T01:22:56.805Z,6.83
2017-08-30T01:25:25.234Z,6.60
2017-08-30T01:27:53.650Z,6.87
2017-08-30T01:30:22.154Z,6.77
2017-08-30T01:32:49.823Z,6.93
2017-08-30T01:35:18.401Z,7.67
2017-08-30T01:37:46.779Z,7.03
2017-08-30T01:40:14.369Z,6.10
2017-08-30T01:42:41.966Z,7.20
2017-08-30T01:45:10.510Z,6.80
2017-08-30T01:47:39.074Z,7.30
2017-08-30T01:50:07.482Z,6.67
2017-08-30T01:52:35.078Z,7.00
2017-08-30T01:55:02.933Z,6.83
2017-08-30T01:57:30.523Z,6.77
2017-08-30T01:59:58.114Z,7.10
2017-08-30T02:02:25.762Z,7.37
2017-08-30T02:04:53.376Z,6.63
2017-08-30T02:07:21.003Z,7.13
2017-08-30T02:09:48.697Z,7.40
2017-08-30T02:12:16.419Z,6.50
2017-08-30T02:14:44.095Z,6.53
2017-08-30T02:17:11.731Z,6.67
2017-08-30T02:19:39.328Z,6.77
2017-08-30T02:22:07.011Z,6.80
2017-08-30T02:24:34.635Z,6.20
2017-08-30T02:27:02.294Z,6.40
2017-08-30T02:29:29.926Z,7.10
2017-08-30T02:31:57.623Z,7.37
2017-08-30T02:34:25.245Z,7.40
2017-08-30T02:36:52.833Z,6.90
2017-08-30T02:39:20.478Z,6.50
2017-08-30T02:41:48.075Z,7.37
2017-08-30T02:44:15.670Z,6.20
2017-08-30T02:46:43.296Z,6.73
2017-08-30T02:49:10.946Z,6.93
2017-08-30T02:51:38.616Z,6.80
2017-08-30T02:54:06.202Z,6.73
2017-08-30T02:56:33.847Z,7.60
2017-08-30T02:59:01.500Z,7.47
2017-08-30T03:01:29.143Z,7.43
2017-08-30T03:03:56.741Z,6.70
2017-08-30T03:06:24.389Z,6.23
2017-08-30T03:08:52.748Z,6.47
2017-08-30T03:11:20.430Z,6.87
2017-08-30T03:13:48.652Z,6.50
2017-08-30T03:16:16.370Z,6.80
2017-08-30T03:18:44.031Z,7.10
2017-08-30T03:21:11.704Z,7.20
2017-08-30T03:23:39.362Z,7.30
2017-08-30T03:26:07.739Z,7.10
2017-08-30T03:28:35.408Z,7.00
2017-08-30T03:31:03.035Z,6.67
2017-08-30T03:33:30.650Z,7.33
2017-08-30T03:35:58.298Z,6.40
2017-08-30T03:38:25.960Z,6.87
2017-08-30T03:40:53.623Z,6.40
2017-08-30T03:43:21.274Z,6.77
2017-08-30T03:45:49.771Z,5.77
2017-08-30T03:48:17.481Z,6.60
2017-08-30T03:50:45.191Z,7.00
2017-08-30T03:53:12.850Z,6.10
2017-08-30T03:55:40.522Z,7.07
2017-08-30T03:58:08.878Z,6.63
2017-08-30T04:00:36.554Z,7.23
2017-08-30T04:03:04.182Z,6.20
2017-08-30T04:05:31.886Z,6.80
2017-08-30T04:07:59.470Z,6.67
2017-08-30T04:10:27.206Z,6.17
2017-08-30T04:12:54.878Z,6.50
2017-08-30T04:15:22.713Z,6.33
2017-08-30T04:17:50.414Z,7.20
2017-08-30T04:20:18.043Z,6.67
2017-08-30T04:22:45.650Z,5.90
2017-08-30T04:25:13.245Z,6.83
2017-08-30T04:27:40.834Z,6.87
2017-08-30T04:30:08.429Z,6.57
2017-08-30T04:32:36.074Z,6.80
2017-08-30T04:35:04.436Z,6.53
2017-08-30T04:37:32.120Z,6.93
2017-08-30T04:39:59.824Z,6.90
2017-08-30T04:42:27.417Z,6.07
2017-08-30T04:44:55.012Z,6.70
2017-08-30T04:47:22.610Z,6.87
2017-08-30T04:49:50.254Z,7.27
2017-08-30T04:52:17.900Z,6.70
2017-08-30T04:54:45.564Z,6.10
2017-08-30T04:57:13.270Z,7.67
2017-08-30T04:59:40.854Z,7.07
2017-08-30T05:02:08.450Z,7.73
2017-08-30T05:04:36.050Z,8.27
2017-08-30T05:07:03.647Z,7.83
2017-08-30T05:09:31.384Z,9.37
2017-08-30T05:11:59.014Z,10.00
2017-08-30T05:14:26.706Z,8.07
2017-08-30T05:16:54.333Z,9.93
2017-08-30T05:19:22.000Z,9.80
2017-08-30T05:21:50.106Z,9.60
2017-08-30T05:24:17.718Z,8.97
2017-08-30T05:26:45.384Z,9.23
2017-08-30T05:29:12.975Z,9.97
2017-08-30T05:31:40.653Z,8.60
2017-08-30T05:34:08.251Z,8.50
2017-08-30T05:36:35.872Z,7.77
2017-08-30T05:39:03.477Z,7.37
2017-08-30T05:41:31.070Z,6.90
2017-08-30T05:43:58.662Z,7.37
2017-08-30T05:46:26.252Z,7.07
2017-08-30T05:48:53.943Z,7.27
2017-08-30T05:51:21.610Z,7.80
2017-08-30T05:53:50.021Z,6.97
2017-08-30T05:56:17.619Z,7.60
2017-08-30T05:58:45.353Z,8.60
2017-08-30T06:01:12.951Z,17.27
2017-08-30T06:03:40.639Z,15.03
2017-08-30T06:06:08.235Z,12.17
2017-08-30T06:08:35.879Z,11.77
2017-08-30T06:11:03.525Z,10.90
2017-08-30T06:13:31.185Z,9.83
2017-08-30T06:15:59.546Z,8.90
2017-08-30T06:18:27.230Z,7.90
2017-08-30T06:20:54.936Z,8.23
2017-08-30T06:23:22.660Z,8.20
2017-08-30T06:25:50.319Z,8.53
2017-08-30T06:28:17.923Z,7.60
2017-08-30T06:30:45.586Z,6.90
2017-08-30T06:33:13.185Z,8.27
2017-08-30T06:35:42.602Z,7.60
2017-08-30T06:38:10.274Z,7.00
2017-08-30T06:40:37.913Z,7.37
2017-08-30T06:43:05.612Z,7.67
2017-08-30T06:45:33.266Z,7.67
2017-08-30T06:48:00.911Z,8.10
2017-08-30T06:50:28.586Z,6.57
2017-08-30T06:52:56.178Z,6.93
2017-08-30T06:55:23.775Z,6.93
2017-08-30T06:57:51.471Z,7.30
2017-08-30T07:00:19.856Z,6.90
2017-08-30T07:02:48.218Z,7.67
2017-08-30T07:05:15.895Z,7.27
2017-08-30T07:07:44.254Z,7.77
2017-08-30T07:10:11.859Z,7.60
2017-08-30T07:12:39.452Z,6.83
2017-08-30T07:15:07.106Z,7.87
2017-08-30T07:17:34.706Z,8.43
2017-08-30T07:20:03.251Z,7.03
2017-08-30T07:22:30.842Z,7.60
2017-08-30T07:24:58.442Z,7.20
2017-08-30T07:27:26.093Z,7.03
2017-08-30T07:29:53.799Z,7.30
2017-08-30T07:32:21.438Z,7.13
2017-08-30T07:34:49.079Z,6.40
2017-08-30T07:37:16.710Z,7.17
2017-08-30T07:39:44.308Z,6.30
2017-08-30T07:42:11.909Z,6.47
2017-08-30T07:44:39.498Z,6.73
2017-08-30T07:47:07.192Z,7.73
2017-08-30T07:49:34.866Z,6.87
2017-08-30T07:52:02.533Z,7.07
2017-08-30T07:54:30.123Z,7.10
2017-08-30T07:56:57.760Z,6.30
2017-08-30T07:59:25.350Z,6.87
2017-08-30T08:01:53.011Z,6.40
2017-08-30T08:04:20.654Z,7.47
2017-08-30T08:06:48.299Z,7.00
2017-08-30T08:09:16.920Z,7.43
2017-08-30T08:11:44.549Z,6.80
2017-08-30T08:14:12.204Z,6.73
2017-08-30T08:16:39.907Z,6.20
2017-08-30T08:19:07.503Z,6.07
2017-08-30T08:21:35.098Z,6.60
2017-08-30T08:24:02.693Z,6.73
2017-08-30T08:26:30.414Z,6.60
2017-08-30T08:28:58.079Z,6.73
2017-08-30T08:31:25.686Z,7.37
2017-08-30T08:33:53.324Z,7.17
2017-08-30T08:36:20.962Z,6.50
2017-08-30T08:38:48.634Z,7.50
2017-08-30T08:41:16.254Z,6.13
2017-08-30T08:43:43.847Z,6.87
2017-08-30T08:46:11.450Z,7.50
2017-08-30T08:48:39.052Z,7.27
2017-08-30T08:51:06.676Z,7.70
2017-08-30T08:53:34.270Z,6.47
2017-08-30T08:56:01.873Z,7.97
2017-08-30T08:58:29.519Z,7.07
2017-08-30T09:00:57.110Z,6.30
2017-08-30T09:03:24.703Z,6.57
2017-08-30T09:05:52.336Z,8.10
2017-08-30T09:08:19.934Z,7.43
2017-08-30T09:10:47.631Z,7.27
2017-08-30T09:13:15.295Z,7.60
2017-08-30T09:15:42.954Z,7.27
2017-08-30T09:18:16.240Z,7.27
2017-08-30T09:20:46.462Z,6.83
2017-08-30T09:23:14.082Z,6.47
2017-08-30T09:25:41.708Z,7.10
2017-08-30T09:28:09.358Z,7.87
2017-08-30T09:30:37.027Z,7.40
2017-08-30T09:33:04.730Z,6.90
2017-08-30T09:35:32.342Z,6.93
2017-08-30T09:38:00.005Z,6.70
2017-08-30T09:40:27.673Z,7.67
2017-08-30T09:42:55.306Z,7.57
2017-08-30T09:45:22.901Z,7.50
2017-08-30T09:47:51.313Z,7.47
2017-08-30T09:50:18.922Z,7.27
2017-08-30T09:52:46.531Z,6.90
2017-08-30T09:55:14.172Z,7.20
2017-08-30T09:57:41.871Z,7.73
2017-08-30T10:00:09.503Z,7.77
2017-08-30T10:02:37.103Z,8.10
2017-08-30T10:05:04.718Z,7.17
2017-08-30T10:07:32.420Z,7.30
2017-08-30T10:10:00.012Z,7.13
2017-08-30T10:12:27.641Z,7.50
2017-08-30T10:14:55.232Z,7.37
2017-08-30T10:17:22.871Z,7.87
2017-08-30T10:19:50.487Z,7.60
2017-08-30T10:22:18.296Z,7.90
2017-08-30T10:24:45.888Z,7.83
2017-08-30T10:27:13.582Z,7.83
2017-08-30T10:29:41.284Z,8.30
2017-08-30T10:32:08.885Z,7.40
2017-08-30T10:34:36.480Z,7.40
2017-08-30T10:37:04.139Z,8.17
2017-08-30T10:39:31.810Z,7.07
2017-08-30T10:41:59.406Z,7.47
2017-08-30T10:44:27.116Z,7.60
2017-08-30T10:46:54.821Z,7.20
2017-08-30T10:49:22.416Z,8.03
2017-08-30T10:51:50.118Z,7.27
2017-08-30T10:54:17.810Z,7.47
2017-08-30T10:56:45.415Z,8.10
2017-08-30T10:59:13.047Z,7.83
2017-08-30T11:01:40.639Z,7.60
2017-08-30T11:04:08.226Z,7.77
2017-08-30T11:06:35.870Z,7.60
2017-08-30T11:09:03.539Z,7.47
2017-08-30T11:11:31.178Z,7.50
2017-08-30T11:13:58.780Z,8.20
2017-08-30T11:16:26.371Z,8.00
2017-08-30T11:18:54.042Z,7.80
2017-08-30T11:21:21.680Z,8.30
2017-08-30T11:23:49.419Z,8.20
2017-08-30T11:26:17.803Z,7.93
2017-08-30T11:28:45.445Z,7.87
2017-08-30T11:31:13.836Z,7.90
2017-08-30T11:33:42.327Z,8.00
2017-08-30T11:36:09.983Z,8.00
2017-08-30T11:38:37.643Z,7.70
2017-08-30T11:41:05.311Z,7.87
2017-08-30T11:43:32.919Z,8.40
2017-08-30T11:46:00.537Z,8.40
2017-08-30T11:48:28.190Z,7.70
2017-08-30T11:50:55.797Z,8.50
2017-08-30T11:53:23.399Z,8.80
2017-08-30T11:55:50.998Z,8.17
2017-08-30T11:58:18.596Z,8.17
2017-08-30T12:00:46.223Z,8.33
2017-08-30T12:03:13.864Z,7.63
2017-08-30T12:05:41.571Z,8.77
2017-08-30T12:08:09.166Z,8.40
2017-08-30T12:10:36.758Z,8.63
2017-08-30T12:13:04.358Z,7.93
2017-08-30T12:15:31.974Z,7.77
2017-08-30T12:17:59.606Z,8.30
2017-08-30T12:20:27.299Z,8.63
2017-08-30T12:22:54.927Z,8.63
2017-08-30T12:25:22.531Z,8.37
2017-08-30T12:27:50.883Z,8.30
2017-08-30T12:30:18.525Z,8.50
2017-08-30T12:32:46.118Z,7.83
2017-08-30T12:35:13.934Z,8.47
2017-08-30T12:37:47.154Z,7.80
2017-08-30T12:40:14.745Z,8.67
2017-08-30T12:42:42.352Z,8.10
2017-08-30T12:45:09.967Z,8.87
2017-08-30T12:47:37.640Z,8.33
2017-08-30T12:50:05.325Z,8.23
2017-08-30T12:52:32.933Z,7.73
2017-08-30T12:55:00.536Z,7.87
2017-08-30T12:57:28.135Z,7.60
2017-08-30T12:59:55.778Z,8.00
2017-08-30T13:02:23.413Z,8.33
2017-08-30T13:04:51.043Z,8.27
2017-08-30T13:07:18.634Z,8.10
2017-08-30T13:09:46.300Z,7.70
2017-08-30T13:12:13.963Z,8.27
2017-08-30T13:14:41.560Z,8.33
2017-08-30T13:17:09.192Z,7.73
2017-08-30T13:19:36.816Z,7.53
2017-08-30T13:22:04.510Z,7.37
2017-08-30T13:24:32.103Z,8.77
2017-08-30T13:26:59.871Z,7.97
2017-08-30T13:29:27.460Z,8.10
2017-08-30T13:31:55.054Z,8.07
2017-08-30T13:34:22.711Z,8.20
2017-08-30T13:36:50.306Z,8.40
2017-08-30T13:39:17.979Z,7.50
2017-08-30T13:41:45.598Z,7.70
2017-08-30T13:44:13.181Z,8.20
2017-08-30T13:46:40.810Z,7.70
2017-08-30T13:49:08.424Z,8.20
2017-08-30T13:51:36.020Z,7.90
2017-08-30T13:54:03.623Z,8.10
2017-08-30T13:56:31.254Z,8.37
2017-08-30T13:58:58.934Z,7.30
2017-08-30T14:01:27.295Z,7.50
2017-08-30T14:03:55.018Z,7.23
2017-08-30T14:06:22.635Z,8.00
2017-08-30T14:08:51.003Z,7.37
2017-08-30T14:11:18.631Z,7.33
2017-08-30T14:13:46.227Z,7.70
2017-08-30T14:16:13.904Z,6.90
2017-08-30T14:18:41.507Z,7.40
2017-08-30T14:21:09.109Z,7.37
2017-08-30T14:23:36.700Z,6.80
2017-08-30T14:26:04.293Z,7.63
2017-08-30T14:28:31.941Z,7.30
2017-08-30T14:30:59.535Z,7.50
2017-08-30T14:33:27.131Z,7.00
2017-08-30T14:35:54.719Z,7.70
2017-08-30T14:38:22.318Z,7.10
2017-08-30T14:40:50.064Z,7.30
2017-08-30T14:43:17.987Z,7.00
2017-08-30T14:45:45.662Z,7.50
2017-08-30T14:48:14.014Z,7.10
2017-08-30T14:50:41.694Z,6.27
2017-08-30T14:53:09.310Z,7.27
2017-08-30T14:55:37.022Z,6.90
2017-08-30T14:58:04.617Z,6.90
2017-08-30T15:00:32.242Z,7.17
2017-08-30T15:02:59.907Z,6.50
2017-08-30T15:05:27.531Z,7.13
2017-08-30T15:07:55.230Z,6.17
2017-08-30T15:10:22.859Z,6.67
2017-08-30T15:12:50.453Z,6.30
2017-08-30T15:15:18.939Z,6.47
2017-08-30T15:17:46.602Z,6.33
2017-08-30T15:20:14.259Z,6.20
2017-08-30T15:22:41.999Z,6.13
2017-08-30T15:25:09.633Z,6.30
2017-08-30T15:27:37.269Z,6.40
2017-08-30T15:30:05.172Z,6.50
2017-08-30T15:32:32.794Z,6.00
2017-08-30T15:35:00.446Z,6.57
2017-08-30T15:37:28.108Z,6.37
2017-08-30T15:39:55.703Z,5.83
2017-08-30T15:42:23.338Z,6.27
2017-08-30T15:44:51.728Z,5.90
2017-08-30T15:47:19.474Z,5.80
2017-08-30T15:49:47.163Z,5.60
2017-08-30T15:52:14.742Z,5.73
2017-08-30T15:54:42.478Z,5.50
2017-08-30T15:57:10.140Z,6.20
2017-08-30T15:59:37.774Z,6.00
2017-08-30T16:02:05.367Z,5.43
2017-08-30T16:04:33.018Z,5.90
2017-08-30T16:07:00.822Z,6.83
2017-08-30T16:09:28.464Z,6.00
2017-08-30T16:11:56.122Z,6.10
2017-08-30T16:14:23.810Z,6.03
2017-08-30T16:16:51.435Z,5.67
2017-08-30T16:19:19.035Z,6.00
2017-08-30T16:21:46.762Z,6.30
2017-08-30T16:24:14.416Z,6.20
2017-08-30T16:26:42.104Z,6.73
2017-08-30T16:29:09.743Z,5.47
2017-08-30T16:31:37.380Z,5.93
2017-08-30T16:34:04.989Z,6.17
2017-08-30T16:36:32.579Z,5.50
2017-08-30T16:39:00.199Z,6.30
2017-08-30T16:41:28.592Z,5.50
2017-08-30T16:43:56.237Z,6.07
2017-08-30T16:46:23.883Z,5.20
2017-08-30T16:48:51.603Z,4.47
2017-08-30T16:51:19.230Z,4.87
2017-08-30T16:53:47.627Z,5.40
2017-08-30T16:56:15.276Z,5.10
2017-08-30T17:01:16.925Z,4.20
2017-08-30T17:03:44.610Z,5.30
2017-08-30T17:06:12.224Z,4.53
2017-08-30T17:08:39.828Z,4.73
2017-08-30T17:11:08.220Z,4.57
2017-08-30T17:13:35.885Z,4.80
2017-08-30T17:16:03.483Z,4.63
2017-08-30T17:18:31.076Z,5.57
2017-08-30T17:20:58.672Z,4.90
2017-08-30T17:23:26.363Z,5.03
2017-08-30T17:25:54.026Z,5.00
2017-08-30T17:28:21.615Z,4.90
2017-08-30T17:30:49.214Z,5.17
2017-08-30T17:33:16.845Z,5.47
2017-08-30T17:35:44.535Z,5.07
2017-08-30T17:38:12.236Z,5.07
2017-08-30T17:40:39.882Z,6.23
2017-08-30T17:43:07.531Z,5.93
2017-08-30T17:45:35.182Z,7.50
2017-08-30T17:48:02.774Z,6.73
2017-08-30T17:50:30.479Z,5.93
2017-08-30T17:52:58.551Z,6.73
2017-08-30T17:55:26.283Z,6.13
2017-08-30T17:57:54.081Z,5.67
2017-08-30T18:00:21.832Z,5.80
2017-08-30T18:02:49.443Z,5.43
2017-08-30T18:05:17.048Z,5.87
2017-08-30T18:07:44.674Z,6.07
2017-08-30T18:10:13.053Z,5.73
2017-08-30T18:12:40.851Z,6.57
2017-08-30T18:15:08.490Z,6.00
2017-08-30T18:17:36.122Z,5.83
2017-08-30T18:20:03.799Z,6.40
2017-08-30T18:22:32.188Z,7.27
2017-08-30T18:24:59.886Z,6.40
2017-08-30T18:27:27.519Z,5.90
2017-08-30T18:29:55.152Z,5.50
2017-08-30T18:32:23.567Z,6.07
2017-08-30T18:34:51.255Z,6.63
2017-08-30T18:37:18.914Z,5.57
2017-08-30T18:39:46.678Z,4.97
2017-08-30T18:42:15.595Z,5.87
2017-08-30T18:44:43.338Z,10.67
2017-08-30T18:47:11.235Z,8.70
2017-08-30T18:49:44.074Z,15.33
2017-08-30T18:52:11.895Z,12.27
2017-08-30T18:54:39.518Z,12.27
2017-08-30T18:57:07.118Z,7.70
2017-08-30T18:59:34.727Z,8.00
2017-08-30T19:02:02.552Z,8.43
2017-08-30T19:04:30.230Z,7.47
2017-08-30T19:06:57.829Z,8.10
2017-08-30T19:09:25.431Z,7.67
2017-08-30T19:11:53.129Z,6.43
2017-08-30T19:14:21.025Z,6.83
2017-08-30T19:16:48.635Z,6.67
2017-08-30T19:19:16.883Z,7.00
2017-08-30T19:21:44.507Z,6.10
2017-08-30T19:24:13.722Z,6.33
2017-08-30T19:26:41.331Z,6.60
2017-08-30T19:29:09.153Z,6.80
2017-08-30T19:31:36.797Z,6.50
2017-08-30T19:34:04.442Z,7.27
2017-08-30T19:36:32.782Z,7.07
2017-08-30T19:39:00.486Z,7.27
2017-08-30T19:41:28.945Z,6.57
2017-08-30T19:43:56.660Z,6.57
2017-08-30T19:46:24.290Z,7.17
2017-08-30T19:48:51.899Z,8.17
2017-08-30T19:51:19.657Z,7.60
2017-08-30T19:53:47.256Z,8.00
2017-08-30T19:56:14.889Z,7.70
2017-08-30T19:58:42.543Z,7.27
2017-08-30T20:01:10.407Z,7.90
2017-08-30T20:03:38.036Z,8.60
2017-08-30T20:06:05.732Z,8.23
2017-08-30T20:08:33.415Z,7.30
2017-08-30T20:11:01.019Z,6.40
2017-08-30T20:13:28.614Z,7.87
2017-08-30T20:15:56.250Z,7.43
2017-08-30T20:18:23.911Z,7.63
2017-08-30T20:20:51.563Z,6.47
2017-08-30T20:23:19.279Z,6.50
2017-08-30T20:25:48.939Z,6.80
2017-08-30T20:28:16.536Z,7.53
2017-08-30T20:30:44.165Z,7.93
2017-08-30T20:33:12.647Z,7.20
2017-08-30T20:35:40.247Z,6.80
2017-08-30T20:38:09.039Z,6.20
2017-08-30T20:40:38.392Z,6.90
2017-08-30T20:43:06.153Z,7.40
2017-08-30T20:45:33.767Z,5.93
2017-08-30T20:48:01.509Z,7.60
2017-08-30T20:50:29.159Z,6.10
2017-08-30T20:52:56.857Z,7.23
2017-08-30T20:55:24.487Z,7.50
2017-08-30T20:57:52.578Z,6.13
2017-08-30T21:00:20.310Z,6.93
2017-08-30T21:02:47.982Z,6.63
2017-08-30T21:05:16.503Z,6.53
2017-08-30T21:07:44.124Z,5.83
2017-08-30T21:10:11.726Z,7.20
2017-08-30T21:12:39.319Z,6.83
2017-08-30T21:15:06.957Z,7.37
2017-08-30T21:17:34.670Z,6.90
2017-08-30T21:20:02.263Z,6.60
2017-08-30T21:22:29.900Z,7.87
2017-08-30T21:24:57.558Z,8.27
2017-08-30T21:27:25.226Z,7.30
2017-08-30T21:29:52.827Z,8.30
2017-08-30T21:32:20.466Z,8.83
2017-08-30T21:34:48.926Z,8.63
2017-08-30T21:37:16.587Z,8.00
2017-08-30T21:39:44.431Z,7.27
2017-08-30T21:42:12.171Z,7.63
2017-08-30T21:44:39.883Z,7.47
2017-08-30T21:47:09.707Z,7.40
2017-08-30T21:49:37.357Z,7.63
2017-08-30T21:52:05.023Z,7.90
2017-08-30T21:54:32.937Z,6.60
2017-08-30T21:57:00.565Z,7.47
2017-08-30T21:59:28.171Z,7.90
2017-08-30T22:01:55.779Z,7.47
2017-08-30T22:04:23.486Z,6.97
2017-08-30T22:06:51.155Z,7.90
2017-08-30T22:09:18.901Z,8.30
2017-08-30T22:11:46.550Z,7.30
2017-08-30T22:14:14.159Z,7.83
2017-08-30T22:16:42.062Z,8.23
2017-08-30T22:19:09.731Z,7.07
2017-08-30T22:21:37.334Z,7.23
2017-08-30T22:24:04.922Z,6.70
2017-08-30T22:26:33.095Z,7.00
2017-08-30T22:29:00.799Z,7.07
